Time;durP1;ratioP1;P1;durP2;ratioP2;P2;SDS_P1;SDS_P2;PMS_P1;PMS_P2;Temp;Humidity;BMP_temperature;BMP_pressure;BME280_temperature;BME280_humidity;BME280_pressure;Samples;Min_cycle;Max_cycle;Signal;HPM_P1;HPM_P2
2022/08/02 00:01:34;;;;;;;1.52;1.42;;;;;;;20.02;57.71;95935.50;5043692;28;20041;-62
2022/08/02 00:04:00;;;;;;;1.63;1.52;;;;;;;19.97;58.53;95935.25;5042961;28;20032;-62
2022/08/02 00:06:25;;;;;;;1.98;1.45;;;;;;;19.94;56.63;95940.97;5042967;28;20041;-62
2022/08/02 00:08:52;;;;;;;1.70;1.60;;;;;;;19.97;56.16;95935.25;5043405;28;20108;-62
2022/08/02 00:11:18;;;;;;;1.42;1.33;;;;;;;19.96;56.03;95944.28;5041971;28;20018;-62
2022/08/02 00:13:44;;;;;;;1.60;1.50;;;;;;;19.91;55.96;95936.03;5039531;28;20064;-62
2022/08/02 00:16:09;;;;;;;1.25;1.25;;;;;;;19.85;57.37;95928.75;5046468;28;20055;-62
2022/08/02 00:18:35;;;;;;;1.58;1.50;;;;;;;19.80;57.49;95932.00;5040068;28;20028;-62
2022/08/02 00:21:00;;;;;;;1.88;1.60;;;;;;;19.81;55.79;95930.19;5031867;28;20029;-62
2022/08/02 00:23:25;;;;;;;1.38;1.38;;;;;;;19.80;56.25;95931.19;5043159;28;20503;-62
2022/08/02 00:25:51;;;;;;;1.73;1.60;;;;;;;19.81;55.59;95930.19;5043778;28;20017;-62
2022/08/02 00:28:16;;;;;;;1.38;1.38;;;;;;;19.75;56.26;95926.44;5041894;28;20036;-62
2022/08/02 00:30:41;;;;;;;1.60;1.35;;;;;;;19.65;56.64;95920.59;5046606;28;20037;-62
2022/08/02 00:33:07;;;;;;;1.63;1.40;;;;;;;19.64;56.18;95919.78;5041560;28;20110;-62
2022/08/02 00:35:33;;;;;;;1.30;1.30;;;;;;;19.58;56.35;95924.03;5037431;28;20036;-62
2022/08/02 00:37:59;;;;;;;2.17;1.50;;;;;;;19.59;57.24;95917.69;5027174;28;20027;-62
2022/08/02 00:40:24;;;;;;;1.63;1.60;;;;;;;19.56;57.70;95920.75;5041690;28;20112;-62
2022/08/02 00:43:19;;;;;;;2.35;1.70;;;;;;;19.51;58.25;95917.00;5042827;28;20035;-62
2022/08/02 00:45:44;;;;;;;3.10;1.70;;;;;;;19.50;57.48;95923.34;5023227;28;20048;-62
2022/08/02 00:48:11;;;;;;;1.60;1.50;;;;;;;19.46;57.32;95922.94;5041027;28;20033;-62
2022/08/02 00:50:37;;;;;;;1.45;1.45;;;;;;;19.45;58.50;95915.91;5038398;28;20104;-62
2022/08/02 00:53:03;;;;;;;1.52;1.42;;;;;;;19.42;58.40;95917.13;5043044;28;20024;-62
2022/08/02 00:55:29;;;;;;;1.50;1.38;;;;;;;19.42;58.32;95918.97;5044840;28;20104;-62
2022/08/02 00:57:54;;;;;;;1.73;1.50;;;;;;;19.40;59.42;95918.34;5042541;28;20166;-62
2022/08/02 01:00:20;;;;;;;1.60;1.50;;;;;;;19.42;57.89;95918.97;5042726;28;20033;-62
2022/08/02 01:02:46;;;;;;;1.40;1.40;;;;;;;19.44;56.72;95917.78;5039970;28;20032;-61
2022/08/02 01:05:12;;;;;;;1.60;1.50;;;;;;;19.44;56.81;95920.44;5043747;28;20133;-62
2022/08/02 01:07:38;;;;;;;2.65;1.70;;;;;;;19.42;58.27;95916.28;5041369;28;20033;-62
2022/08/02 01:10:04;;;;;;;1.30;1.30;;;;;;;19.36;57.77;95911.72;5043055;28;20610;-62
2022/08/02 01:12:30;;;;;;;1.65;1.42;;;;;;;19.35;57.22;95916.25;5038966;28;20029;-62
2022/08/02 01:14:58;;;;;;;2.55;1.80;;;;;;;19.27;57.79;95908.38;5044249;28;20698;-62
2022/08/02 01:17:44;;;;;;;1.75;1.58;;;;;;;19.24;57.60;95914.09;5045927;28;20025;-62
2022/08/02 01:20:19;;;;;;;1.83;1.73;;;;;;;19.18;57.17;95911.19;5042650;28;20036;-62
2022/08/02 01:23:22;;;;;;;1.50;1.40;;;;;;;19.16;57.41;95917.72;5036081;28;20489;-62
2022/08/02 01:26:18;;;;;;;1.58;1.48;;;;;;;19.17;57.29;95914.03;4975175;28;20074;-62
2022/08/02 01:28:58;;;;;;;1.60;1.50;;;;;;;19.13;57.28;95910.94;4974554;28;20045;-62
2022/08/02 01:31:54;;;;;;;1.60;1.50;;;;;;;19.01;59.95;95912.44;5022794;28;20048;-61
2022/08/02 01:34:29;;;;;;;1.77;1.67;;;;;;;18.96;57.85;95912.16;5038742;28;20484;-61
2022/08/02 01:37:00;;;;;;;2.33;1.40;;;;;;;18.99;57.47;95909.13;5044833;28;20041;-62
2022/08/02 01:39:29;;;;;;;1.80;1.70;;;;;;;19.03;56.89;95911.25;5041714;28;20485;-60
2022/08/02 01:41:56;;;;;;;5.60;1.60;;;;;;;19.06;56.84;95915.34;5037691;28;20080;-61
2022/08/02 01:44:25;;;;;;;1.70;1.58;;;;;;;19.05;56.20;95919.03;5044890;28;20017;-61
2022/08/02 01:46:56;;;;;;;1.77;1.67;;;;;;;19.01;59.40;95912.44;5048312;28;20507;-61
2022/08/02 01:49:23;;;;;;;1.45;1.45;;;;;;;18.95;57.64;95913.16;5043050;28;20448;-60
2022/08/02 01:54:36;;;;;;;1.10;1.10;;;;;;;18.81;57.48;95914.88;5046607;28;20514;-61
2022/08/02 01:57:04;;;;;;;1.73;1.52;;;;;;;18.78;58.39;95920.56;5043264;28;20523;-61
2022/08/02 01:59:31;;;;;;;1.20;1.20;;;;;;;18.75;58.20;95919.91;5044137;28;20032;-61
2022/08/02 02:02:00;;;;;;;1.30;1.30;;;;;;;18.71;59.03;95915.19;5050396;28;20404;-61
2022/08/02 02:04:29;;;;;;;1.60;1.50;;;;;;;18.63;59.21;95912.59;5044447;28;20500;-60
2022/08/02 02:06:56;;;;;;;2.65;1.38;;;;;;;18.64;58.76;95908.91;5045324;28;20116;-61
2022/08/02 02:09:26;;;;;;;1.58;1.48;;;;;;;18.69;58.56;95918.00;5043708;28;20496;-61
2022/08/02 02:11:54;;;;;;;1.48;1.38;;;;;;;18.67;57.71;95908.53;5047974;28;20025;-61
2022/08/02 02:14:20;;;;;;;1.38;1.30;;;;;;;18.67;58.32;95908.53;5046810;28;20056;-61
2022/08/02 02:16:48;;;;;;;1.40;1.40;;;;;;;18.61;60.71;95904.81;5045810;28;20032;-62
2022/08/02 02:19:17;;;;;;;1.60;1.50;;;;;;;18.53;59.30;95903.06;5048688;28;20496;-62
2022/08/02 02:21:43;;;;;;;2.53;1.67;;;;;;;18.51;59.64;95904.25;5045838;28;20045;-62
2022/08/02 02:24:08;;;;;;;2.92;1.50;;;;;;;18.51;59.81;95898.94;5047386;28;20029;-62
2022/08/02 02:26:35;;;;;;;1.60;1.50;;;;;;;18.49;61.64;95900.97;5045505;28;20029;-62
2022/08/02 02:29:02;;;;;;;2.90;1.50;;;;;;;18.41;61.17;95900.06;5038063;28;20056;-62
2022/08/02 02:31:34;;;;;;;1.77;1.60;;;;;;;18.33;62.62;95898.31;5044719;28;20026;-62
2022/08/02 02:34:03;;;;;;;2.13;1.70;;;;;;;18.29;61.31;95891.72;5043999;28;20020;-62
2022/08/02 02:36:32;;;;;;;1.77;1.65;;;;;;;18.28;61.88;95894.56;5044893;28;20025;-62
2022/08/02 02:39:02;;;;;;;2.92;1.45;;;;;;;18.32;61.69;95893.16;5050572;28;20395;-62
2022/08/02 02:41:28;;;;;;;3.47;1.75;;;;;;;18.31;63.38;95887.03;5036320;28;20025;-62
2022/08/02 02:43:57;;;;;;;1.60;1.50;;;;;;;18.25;64.79;95890.44;5041899;28;20013;-62
2022/08/02 02:46:24;;;;;;;1.40;1.40;;;;;;;18.25;63.66;95884.25;5049922;28;20035;-62
2022/08/02 02:48:50;;;;;;;3.53;1.80;;;;;;;18.20;63.56;95886.66;5042444;28;20021;-62
2022/08/02 02:51:17;;;;;;;1.42;1.30;;;;;;;18.11;63.70;95886.75;5037861;28;20036;-62
2022/08/02 02:53:45;;;;;;;3.47;1.75;;;;;;;18.08;62.59;95880.97;5049644;28;20013;-62
2022/08/02 02:56:12;;;;;;;2.22;1.42;;;;;;;18.08;62.28;95886.31;5051838;28;20094;-62
2022/08/02 02:58:38;;;;;;;1.70;1.60;;;;;;;18.08;63.06;95880.97;5049133;28;20041;-62
2022/08/02 03:03:50;;;;;;;1.52;1.50;;;;;;;18.12;62.76;95885.72;5051881;28;20503;-62
2022/08/02 03:06:16;;;;;;;2.05;1.80;;;;;;;18.13;62.80;95886.56;5051374;28;20075;-62
2022/08/02 03:08:42;;;;;;;3.63;1.70;;;;;;;18.17;61.89;95893.19;5051384;28;20029;-62
2022/08/02 03:11:08;;;;;;;2.50;1.63;;;;;;;18.14;61.85;95885.56;5051381;28;20169;-61
2022/08/02 03:13:35;;;;;;;1.55;1.55;;;;;;;18.16;62.08;95888.88;5051461;28;20476;-62
2022/08/02 03:16:01;;;;;;;1.65;1.60;;;;;;;18.15;61.79;95897.88;5051253;28;20029;-61
2022/08/02 03:18:35;;;;;;;1.98;1.80;;;;;;;18.15;62.76;95890.72;5050803;28;20032;-62
2022/08/02 03:21:10;;;;;;;1.58;1.58;;;;;;;18.09;62.17;95886.09;5050070;28;20550;-62
2022/08/02 03:23:37;;;;;;;2.28;1.80;;;;;;;18.06;61.73;95891.81;5051181;28;20032;-62
2022/08/02 03:26:03;;;;;;;2.42;2.33;;;;;;;17.98;61.94;95890.03;5049730;28;20102;-62
2022/08/02 03:28:29;;;;;;;1.92;1.83;;;;;;;17.97;62.35;95891.03;5050942;28;20472;-62
2022/08/02 03:30:55;;;;;;;1.90;1.70;;;;;;;17.95;61.82;95889.59;5051338;28;20035;-62
2022/08/02 03:33:22;;;;;;;2.15;2.00;;;;;;;17.96;62.76;95889.38;5050961;28;20029;-62
2022/08/02 03:35:49;;;;;;;1.60;1.60;;;;;;;17.94;65.43;95894.06;5051080;28;20161;-62
2022/08/02 03:38:17;;;;;;;1.92;1.83;;;;;;;17.88;64.30;95889.47;5049634;28;20060;-62
2022/08/02 03:40:43;;;;;;;1.92;1.77;;;;;;;17.81;63.13;95889.38;5050650;28;20404;-62
2022/08/02 03:43:10;;;;;;;1.75;1.52;;;;;;;17.74;64.26;95891.13;5050779;28;20037;-62
2022/08/02 03:45:38;;;;;;;1.63;1.40;;;;;;;17.75;64.81;95884.78;5050916;28;20025;-62
2022/08/02 03:48:04;;;;;;;1.88;1.77;;;;;;;17.74;64.85;95889.28;5050567;28;20025;-62
2022/08/02 03:50:32;;;;;;;2.00;1.90;;;;;;;17.80;64.55;95897.56;5049966;28;20021;-62
2022/08/02 03:52:58;;;;;;;1.95;1.70;;;;;;;17.78;64.62;95888.91;5050924;28;20021;-61
2022/08/02 03:55:23;;;;;;;1.80;1.70;;;;;;;17.78;63.78;95892.41;5050474;28;20021;-62
2022/08/02 03:57:49;;;;;;;1.90;1.80;;;;;;;17.72;64.23;95893.16;5049021;28;20110;-62
2022/08/02 04:00:19;;;;;;;1.63;1.63;;;;;;;17.70;66.73;95888.00;5050495;28;20027;-62
2022/08/02 04:02:45;;;;;;;1.92;1.83;;;;;;;17.67;65.88;95888.38;5050087;28;20029;-62
2022/08/02 04:05:11;;;;;;;2.03;1.80;;;;;;;17.66;66.52;95885.88;5043677;28;20032;-61
2022/08/02 04:07:37;;;;;;;3.22;1.55;;;;;;;17.57;64.53;95885.13;5047860;28;20488;-61
2022/08/02 04:10:03;;;;;;;3.92;2.13;;;;;;;17.56;64.46;95896.78;5051527;28;20029;-62
2022/08/02 04:12:29;;;;;;;1.80;1.75;;;;;;;17.54;64.63;95886.31;5050523;28;20021;-62
2022/08/02 04:14:55;;;;;;;2.03;1.92;;;;;;;17.54;64.89;95894.31;5049958;28;20664;-62
2022/08/02 04:17:22;;;;;;;1.83;1.73;;;;;;;17.49;65.89;95894.03;5044405;28;20112;-62
2022/08/02 04:19:52;;;;;;;1.77;1.67;;;;;;;17.44;64.52;95891.06;5048187;28;20021;-62
2022/08/02 04:22:24;;;;;;;1.67;1.60;;;;;;;17.47;64.74;95893.41;5048955;28;20025;-61
2022/08/02 04:24:53;;;;;;;1.90;1.80;;;;;;;17.47;65.05;95904.84;5048642;28;20013;-62
2022/08/02 04:27:19;;;;;;;1.65;1.55;;;;;;;17.47;65.72;95891.53;5050017;28;20488;-62
2022/08/02 04:29:46;;;;;;;1.80;1.70;;;;;;;17.46;65.68;95897.03;5049857;28;20044;-62
2022/08/02 04:32:12;;;;;;;4.53;1.70;;;;;;;17.38;65.87;95897.13;5049939;28;20476;-62
2022/08/02 04:34:38;;;;;;;5.28;1.90;;;;;;;17.37;65.96;95903.44;5049727;28;20021;-62
2022/08/02 04:37:04;;;;;;;1.75;1.65;;;;;;;17.40;65.34;95906.59;5049930;28;20036;-62
2022/08/02 04:39:29;;;;;;;1.73;1.63;;;;;;;17.43;64.90;95908.88;5050072;28;20557;-62
2022/08/02 04:41:55;;;;;;;1.80;1.70;;;;;;;17.48;64.99;95905.69;5049668;28;20026;-62
2022/08/02 04:44:20;;;;;;;1.90;1.80;;;;;;;17.38;65.39;95897.97;5029441;28;20079;-62
2022/08/02 04:46:46;;;;;;;2.53;1.95;;;;;;;17.38;66.52;95905.94;5048860;28;20039;-62
2022/08/02 04:49:12;;;;;;;2.05;1.90;;;;;;;17.30;66.08;95912.16;5047868;28;20040;-62
2022/08/02 04:51:39;;;;;;;3.17;1.73;;;;;;;17.30;65.65;95916.63;5049384;28;20025;-62
2022/08/02 04:54:07;;;;;;;1.92;1.83;;;;;;;17.26;67.04;95915.34;5049839;28;20048;-62
2022/08/02 04:56:32;;;;;;;1.98;1.88;;;;;;;17.29;65.13;95912.31;5049863;28;20100;-62
2022/08/02 04:58:57;;;;;;;1.65;1.55;;;;;;;17.32;65.47;95914.63;5049299;28;20128;-62
2022/08/02 05:01:23;;;;;;;1.85;1.73;;;;;;;17.37;65.32;95920.25;5049600;28;20504;-62
2022/08/02 05:03:48;;;;;;;1.90;1.80;;;;;;;17.37;64.83;95922.91;5049579;28;20028;-62
2022/08/02 05:06:14;;;;;;;1.75;1.65;;;;;;;17.38;65.64;95921.91;5049613;28;20071;-62
2022/08/02 05:08:39;;;;;;;1.90;1.80;;;;;;;17.34;65.53;95920.59;5049352;28;20098;-62
2022/08/02 05:11:04;;;;;;;6.53;2.00;;;;;;;17.35;66.93;95924.91;5048820;28;20075;-62
2022/08/02 05:13:30;;;;;;;2.70;1.65;;;;;;;17.36;65.84;95928.41;5049082;28;20032;-62
2022/08/02 05:15:57;;;;;;;2.08;1.98;;;;;;;17.39;65.40;95928.88;5049397;28;20466;-62
2022/08/02 05:18:23;;;;;;;1.40;1.40;;;;;;;17.42;65.64;95928.53;5052837;28;20025;-62
2022/08/02 05:20:48;;;;;;;1.80;1.70;;;;;;;17.46;64.75;95927.16;5051993;28;20086;-62
2022/08/02 05:23:13;;;;;;;1.77;1.67;;;;;;;17.51;64.47;95931.09;5052830;28;20025;-62
2022/08/02 05:25:39;;;;;;;3.60;1.88;;;;;;;17.51;65.02;95931.09;5053437;28;20500;-62
2022/08/02 05:28:04;;;;;;;1.83;1.73;;;;;;;17.53;66.50;95924.59;5052268;28;20075;-62
2022/08/02 05:30:29;;;;;;;1.80;1.70;;;;;;;17.55;67.07;95927.06;5052375;28;20574;-62
2022/08/02 05:32:55;;;;;;;1.70;1.60;;;;;;;17.59;66.47;95923.88;5048530;28;20448;-62
2022/08/02 05:35:22;;;;;;;2.25;2.15;;;;;;;17.61;66.85;95929.03;5053157;28;20078;-62
2022/08/02 05:37:49;;;;;;;1.73;1.63;;;;;;;17.65;67.04;95927.66;5053151;28;20032;-62
2022/08/02 05:40:15;;;;;;;1.83;1.73;;;;;;;17.72;66.89;95930.44;5053001;28;20500;-62
2022/08/02 05:42:41;;;;;;;2.25;1.65;;;;;;;17.86;66.00;95929.59;5053026;28;20029;-62
2022/08/02 05:45:07;;;;;;;5.30;2.05;;;;;;;17.97;66.61;95930.19;5052054;28;20029;-62
2022/08/02 05:47:33;;;;;;;2.83;2.28;;;;;;;18.06;66.18;95926.44;5053221;28;20028;-62
2022/08/02 05:49:59;;;;;;;5.25;1.88;;;;;;;18.16;66.32;95926.16;5052654;28;20037;-62
2022/08/02 05:52:32;;;;;;;7.13;2.47;;;;;;;18.31;66.10;95928.81;5052981;28;20032;-62
2022/08/02 05:55:12;;;;;;;2.70;2.40;;;;;;;18.55;66.02;95933.03;5052947;28;20025;-62
2022/08/02 05:57:56;;;;;;;4.22;2.55;;;;;;;18.74;66.08;95933.47;5043609;28;20056;-62
2022/08/02 06:00:22;;;;;;;9.83;2.30;;;;;;;18.79;65.12;95930.22;5049331;28;20516;-62
2022/08/02 06:03:24;;;;;;;6.70;2.20;;;;;;;18.87;63.27;95928.25;5051181;28;20028;-62
2022/08/02 06:05:50;;;;;;;4.78;2.42;;;;;;;19.05;62.15;95927.03;5051734;28;20083;-62
2022/08/02 06:08:15;;;;;;;2.17;1.90;;;;;;;19.23;61.33;95929.28;5052330;28;20028;-62
2022/08/02 06:10:42;;;;;;;2.08;1.98;;;;;;;19.31;61.07;95929.16;5052811;28;20044;-62
2022/08/02 06:13:12;;;;;;;4.20;2.30;;;;;;;19.42;60.83;95924.31;5052766;28;20017;-62
2022/08/02 06:15:39;;;;;;;2.70;2.05;;;;;;;19.60;60.86;95929.19;5052946;28;20029;-62
2022/08/02 06:18:06;;;;;;;1.95;1.85;;;;;;;19.78;60.70;95923.38;5052416;28;20021;-62
2022/08/02 06:20:35;;;;;;;1.80;1.70;;;;;;;19.96;59.35;95917.56;5052203;28;20037;-61
2022/08/02 06:23:06;;;;;;;1.77;1.60;;;;;;;20.22;58.79;95918.72;5050796;28;20033;-62
2022/08/02 06:25:34;;;;;;;10.18;2.50;;;;;;;20.47;57.50;95928.97;5056986;28;20048;-63
2022/08/02 06:28:02;;;;;;;5.30;2.20;;;;;;;20.69;56.42;95915.47;5051914;28;20025;-64
2022/08/02 06:30:28;;;;;;;2.10;1.90;;;;;;;20.87;54.95;95918.41;5051684;28;20093;-62
2022/08/02 06:32:53;;;;;;;2.65;2.00;;;;;;;21.05;54.11;95919.69;5051870;28;20480;-61
2022/08/02 06:35:19;;;;;;;2.42;1.70;;;;;;;21.20;53.75;95921.38;5051340;28;20025;-62
2022/08/02 06:37:51;;;;;;;2.10;1.90;;;;;;;21.39;53.05;95917.91;5050022;28;20040;-62
2022/08/02 06:40:39;;;;;;;2.65;1.55;;;;;;;21.64;50.16;95911.09;5050771;28;20064;-61
2022/08/02 06:43:11;;;;;;;1.58;1.48;;;;;;;21.91;50.78;95914.63;5048499;28;20037;-62
2022/08/02 06:45:36;;;;;;;2.53;1.55;;;;;;;22.11;49.94;95911.94;5050818;28;20565;-62
2022/08/02 06:48:03;;;;;;;3.42;1.80;;;;;;;22.30;49.88;95914.75;5050338;28;20021;-61
2022/08/02 06:50:29;;;;;;;1.70;1.60;;;;;;;22.53;48.52;95914.28;5050444;28;20116;-62
2022/08/02 06:52:54;;;;;;;3.28;1.63;;;;;;;22.75;47.32;95905.94;5050443;28;20112;-62
2022/08/02 06:55:20;;;;;;;1.60;1.50;;;;;;;22.86;47.13;95913.31;5050724;28;20120;-62
2022/08/02 06:57:45;;;;;;;1.80;1.70;;;;;;;23.12;46.95;95922.28;5049715;28;20067;-62
2022/08/02 07:00:11;;;;;;;1.77;1.67;;;;;;;23.35;46.50;95914.72;5050678;28;20141;-62
2022/08/02 07:02:38;;;;;;;1.98;1.80;;;;;;;23.63;44.60;95913.47;5047817;28;20074;-62
2022/08/02 07:05:05;;;;;;;1.75;1.65;;;;;;;23.97;44.78;95906.75;5050495;28;20029;-62
2022/08/02 07:07:31;;;;;;;1.65;1.40;;;;;;;24.29;44.03;95906.66;5047864;28;20509;-63
2022/08/02 07:09:57;;;;;;;1.90;1.60;;;;;;;24.59;43.38;95899.72;5042295;28;20029;-63
2022/08/02 07:12:23;;;;;;;5.05;1.65;;;;;;;24.85;42.86;95900.44;5031208;28;20061;-63
2022/08/02 07:14:48;;;;;;;1.60;1.50;;;;;;;24.91;41.29;95904.91;5049805;28;20049;-63
2022/08/02 07:17:14;;;;;;;1.60;1.50;;;;;;;25.21;41.89;95901.41;5050079;28;20472;-63
2022/08/02 07:19:39;;;;;;;2.53;1.65;;;;;;;25.52;40.75;95901.34;5049637;28;20099;-63
2022/08/02 07:22:05;;;;;;;1.60;1.50;;;;;;;25.91;39.74;95900.94;5049549;28;20029;-63
2022/08/02 07:24:30;;;;;;;1.77;1.67;;;;;;;26.09;39.34;95894.59;5049704;28;20408;-63
2022/08/02 07:26:57;;;;;;;3.28;1.73;;;;;;;26.53;37.84;95894.22;5049708;28;20032;-62
2022/08/02 07:29:23;;;;;;;1.58;1.48;;;;;;;26.78;37.40;95891.19;5050563;28;20025;-63
2022/08/02 07:31:48;;;;;;;1.58;1.48;;;;;;;27.05;36.96;95892.53;5050156;28;20036;-63
2022/08/02 07:34:14;;;;;;;1.90;1.80;;;;;;;27.08;37.48;95884.78;5048147;28;20524;-63
2022/08/02 07:36:39;;;;;;;1.90;1.77;;;;;;;27.17;37.23;95883.31;5048052;28;20456;-63
2022/08/02 07:39:04;;;;;;;1.45;1.42;;;;;;;27.50;36.86;95880.88;5049086;28;20028;-63
2022/08/02 07:41:30;;;;;;;1.83;1.67;;;;;;;27.51;36.82;95879.84;5048666;28;20041;-63
2022/08/02 07:43:55;;;;;;;1.70;1.60;;;;;;;28.00;35.16;95871.13;5050357;28;20488;-63
2022/08/02 07:46:21;;;;;;;1.70;1.60;;;;;;;28.17;34.64;95881.09;5048052;28;20025;-63
2022/08/02 07:48:52;;;;;;;1.98;1.85;;;;;;;28.27;34.82;95878.53;5049970;28;20032;-63
2022/08/02 07:51:17;;;;;;;1.90;1.80;;;;;;;28.55;34.29;95876.72;5050059;28;20021;-63
2022/08/02 07:53:42;;;;;;;1.70;1.60;;;;;;;28.93;33.66;95867.97;5050256;28;20032;-63
2022/08/02 07:56:08;;;;;;;1.63;1.52;;;;;;;28.57;33.99;95863.75;5048125;28;20036;-63
2022/08/02 07:58:33;;;;;;;1.70;1.60;;;;;;;28.82;34.34;95859.72;5049890;28;20120;-64
2022/08/02 08:00:59;;;;;;;1.83;1.60;;;;;;;28.70;33.89;95857.13;5049355;28;20021;-64
2022/08/02 08:03:24;;;;;;;3.33;1.95;;;;;;;29.12;31.86;95852.16;5048301;28;20028;-63
2022/08/02 08:05:51;;;;;;;2.58;1.65;;;;;;;29.45;32.34;95850.31;5047499;28;20503;-63
2022/08/02 08:08:16;;;;;;;3.95;1.70;;;;;;;29.73;31.13;95851.06;5047803;28;20480;-64
2022/08/02 08:10:42;;;;;;;2.72;1.55;;;;;;;29.58;31.16;95847.16;5045887;28;20174;-64
2022/08/02 08:13:07;;;;;;;2.22;1.50;;;;;;;29.22;30.94;95849.56;5047213;28;20373;-63
2022/08/02 08:15:33;;;;;;;1.80;1.70;;;;;;;29.79;30.60;95844.56;5047391;28;20029;-63
2022/08/02 08:17:58;;;;;;;1.70;1.60;;;;;;;29.85;30.25;95843.56;5045689;28;20021;-63
2022/08/02 08:20:23;;;;;;;1.80;1.70;;;;;;;29.91;30.42;95838.94;5044565;28;20043;-63
2022/08/02 08:22:49;;;;;;;1.70;1.60;;;;;;;30.29;30.32;95841.66;5048536;28;20112;-63
2022/08/02 08:25:15;;;;;;;1.75;1.65;;;;;;;30.24;29.78;95853.28;5048845;28;20060;-63
2022/08/02 08:27:48;;;;;;;2.40;1.80;;;;;;;30.39;29.25;95841.69;5045503;28;20040;-64
2022/08/02 08:30:15;;;;;;;1.98;1.85;;;;;;;30.74;29.93;95855.69;5048133;28;20029;-64
2022/08/02 08:32:40;;;;;;;1.80;1.70;;;;;;;30.67;28.91;95842.34;5047132;28;20106;-64
2022/08/02 08:35:07;;;;;;;1.77;1.67;;;;;;;31.04;29.16;95843.22;5042496;28;20733;-64
2022/08/02 08:37:34;;;;;;;2.72;1.33;;;;;;;31.49;28.26;95845.47;5046584;28;20025;-64
2022/08/02 08:39:59;;;;;;;2.45;2.22;;;;;;;31.69;27.15;95842.72;5048947;28;20029;-64
2022/08/02 08:42:26;;;;;;;1.40;1.30;;;;;;;31.59;27.20;95838.13;5049520;28;20028;-64
2022/08/02 08:44:51;;;;;;;1.55;1.45;;;;;;;31.47;28.00;95847.66;5049207;28;20036;-64
2022/08/02 08:47:18;;;;;;;1.75;1.60;;;;;;;31.47;28.32;95848.47;5048254;28;20081;-64
2022/08/02 08:49:50;;;;;;;1.60;1.50;;;;;;;31.12;28.27;95847.31;5046386;28;20334;-64
2022/08/02 08:52:18;;;;;;;1.80;1.70;;;;;;;31.39;27.32;95849.84;5048119;28;20036;-64
2022/08/02 08:54:47;;;;;;;1.75;1.65;;;;;;;31.15;28.29;95850.34;5048799;28;20029;-64
2022/08/02 08:57:14;;;;;;;2.22;1.63;;;;;;;31.38;28.31;95842.75;5047234;28;20029;-64
2022/08/02 08:59:39;;;;;;;2.25;1.30;;;;;;;31.78;28.30;95847.66;5048726;28;20486;-64
2022/08/02 09:02:05;;;;;;;1.67;1.58;;;;;;;32.00;26.82;95845.44;5048926;28;20043;-64
2022/08/02 09:04:31;;;;;;;1.73;1.60;;;;;;;32.14;27.40;95844.84;5049172;28;20166;-64
2022/08/02 09:06:57;;;;;;;1.83;1.73;;;;;;;32.18;26.28;95843.22;5049281;28;20547;-64
2022/08/02 09:09:22;;;;;;;1.80;1.70;;;;;;;31.83;27.16;95851.22;5048610;28;20384;-64
2022/08/02 09:11:48;;;;;;;2.15;1.50;;;;;;;32.21;27.22;95847.28;5048339;28;20036;-64
2022/08/02 09:14:28;;;;;;;2.10;1.77;;;;;;;32.24;26.76;95835.84;5047416;28;20399;-64
2022/08/02 09:17:05;;;;;;;1.90;1.60;;;;;;;32.50;27.18;95842.03;5046402;28;20044;-64
2022/08/02 09:19:31;;;;;;;2.38;1.50;;;;;;;32.46;26.54;95840.13;5047531;28;20037;-64
2022/08/02 09:22:03;;;;;;;2.38;1.52;;;;;;;32.63;26.43;95837.88;5061681;28;20025;-64
2022/08/02 09:24:28;;;;;;;2.00;1.90;;;;;;;32.56;27.35;95840.09;5048420;28;20018;-64
2022/08/02 09:26:54;;;;;;;1.83;1.70;;;;;;;32.24;26.64;95833.09;5047638;28;20041;-65
2022/08/02 09:29:23;;;;;;;3.17;1.70;;;;;;;31.89;27.72;95832.94;5048801;28;20025;-64
2022/08/02 09:31:49;;;;;;;4.00;1.58;;;;;;;31.47;28.12;95832.16;5048747;28;20025;-64
2022/08/02 09:34:15;;;;;;;1.45;1.35;;;;;;;32.20;28.03;95827.44;5049316;28;20028;-64
2022/08/02 09:36:45;;;;;;;1.60;1.50;;;;;;;32.13;26.50;95837.78;5048870;28;20021;-64
2022/08/02 09:39:13;;;;;;;2.38;1.52;;;;;;;32.28;26.71;95831.50;5045976;28;20048;-64
2022/08/02 09:41:40;;;;;;;2.00;1.60;;;;;;;32.44;27.06;95843.16;5043160;28;20024;-64
2022/08/02 09:44:09;;;;;;;2.22;1.55;;;;;;;32.68;25.89;95840.56;5041941;28;20029;-63
2022/08/02 09:46:40;;;;;;;2.60;1.40;;;;;;;32.67;26.53;95835.44;5043140;28;20078;-64
2022/08/02 09:49:08;;;;;;;1.52;1.40;;;;;;;32.78;25.27;95836.97;5045338;28;20056;-64
2022/08/02 09:51:50;;;;;;;1.83;1.38;;;;;;;32.84;25.85;95841.34;5043303;28;20044;-64
2022/08/02 09:54:24;;;;;;;1.52;1.45;;;;;;;33.05;25.60;95835.78;5037943;28;20029;-64
2022/08/02 09:56:57;;;;;;;1.63;1.38;;;;;;;33.13;26.17;95826.16;5045761;28;20046;-64
2022/08/02 09:59:24;;;;;;;2.58;1.40;;;;;;;33.24;25.71;95826.91;5048363;28;20061;-64
2022/08/02 10:01:51;;;;;;;3.70;1.63;;;;;;;33.37;26.01;95826.25;5047914;28;20513;-65
2022/08/02 10:04:21;;;;;;;1.63;1.52;;;;;;;33.24;25.52;95826.91;5050340;28;20029;-64
2022/08/02 10:06:48;;;;;;;2.85;1.50;;;;;;;33.48;25.29;95824.28;5049675;28;20036;-64
2022/08/02 10:09:14;;;;;;;6.88;1.67;;;;;;;33.36;26.23;95823.81;5050850;28;20128;-65
2022/08/02 10:11:40;;;;;;;1.65;1.40;;;;;;;33.79;24.78;95820.47;5048426;28;20132;-65
2022/08/02 10:14:08;;;;;;;1.65;1.55;;;;;;;33.60;25.18;95815.72;5048204;28;20048;-65
2022/08/02 10:16:39;;;;;;;1.55;1.50;;;;;;;33.56;25.79;95815.47;5049765;28;20024;-65
2022/08/02 10:19:04;;;;;;;4.72;1.38;;;;;;;33.70;25.76;95818.34;5039058;28;20032;-65
2022/08/02 10:21:45;;;;;;;3.15;1.60;;;;;;;34.19;24.84;95807.50;5048405;28;20029;-65
2022/08/02 10:24:19;;;;;;;1.80;1.48;;;;;;;34.32;24.49;95803.25;5051403;28;20036;-65
2022/08/02 10:26:47;;;;;;;3.28;1.92;;;;;;;34.23;25.47;95803.06;5051995;28;20025;-65
2022/08/02 10:29:18;;;;;;;1.55;1.45;;;;;;;34.54;24.40;95799.97;5050279;28;20514;-65
2022/08/02 10:32:03;;;;;;;1.70;1.60;;;;;;;35.05;23.97;95805.88;5048244;28;20107;-65
2022/08/02 10:34:34;;;;;;;1.55;1.45;;;;;;;34.35;24.22;95804.56;5051473;28;20077;-65
2022/08/02 10:37:05;;;;;;;1.85;1.75;;;;;;;33.99;24.42;95803.06;5047589;28;20024;-65
2022/08/02 10:39:41;;;;;;;1.55;1.40;;;;;;;34.40;23.80;95799.84;5039458;28;20443;-66
2022/08/02 10:42:07;;;;;;;1.67;1.58;;;;;;;34.71;24.11;95804.13;5036749;28;20052;-66
2022/08/02 10:44:33;;;;;;;4.30;1.70;;;;;;;34.95;23.80;95795.03;5036386;28;20495;-65
2022/08/02 10:47:21;;;;;;;1.33;1.23;;;;;;;34.89;24.03;95788.81;5050194;28;20488;-66
2022/08/02 10:49:54;;;;;;;1.40;1.30;;;;;;;34.80;23.65;95793.34;5049832;28;20057;-66
2022/08/02 10:52:22;;;;;;;1.52;1.42;;;;;;;34.90;23.82;95793.19;5049373;28;20030;-66
2022/08/02 10:54:59;;;;;;;1.65;1.40;;;;;;;35.21;23.31;95789.19;5050320;28;20029;-65
2022/08/02 10:57:33;;;;;;;3.50;1.40;;;;;;;35.21;23.69;95786.47;5049910;28;20569;-66
2022/08/02 11:00:26;;;;;;;2.10;1.23;;;;;;;35.05;23.87;95781.25;5049290;28;20059;-65
2022/08/02 11:02:52;;;;;;;1.90;1.35;;;;;;;34.92;23.57;95777.28;5049882;28;20033;-66
2022/08/02 11:05:30;;;;;;;2.90;1.35;;;;;;;35.31;22.29;95769.88;5050044;28;20450;-66
2022/08/02 11:07:56;;;;;;;1.42;1.33;;;;;;;35.19;22.60;95769.53;5048434;28;20108;-66
2022/08/02 11:10:37;;;;;;;1.77;1.60;;;;;;;35.10;22.70;95767.50;5049095;28;20104;-65
2022/08/02 11:13:07;;;;;;;1.50;1.40;;;;;;;35.12;22.73;95768.00;5044453;28;20057;-65
2022/08/02 11:16:00;;;;;;;1.52;1.10;;;;;;;34.97;24.33;95760.00;5047934;28;20496;-64
2022/08/02 11:18:50;;;;;;;1.40;1.40;;;;;;;35.55;23.38;95758.00;5049658;28;20096;-64
2022/08/02 11:21:27;;;;;;;2.10;1.30;;;;;;;35.65;23.34;95757.00;5050486;28;20074;-64
2022/08/02 11:23:53;;;;;;;1.30;1.20;;;;;;;36.13;23.35;95747.59;5039926;28;20471;-64
2022/08/02 11:26:28;;;;;;;1.60;1.50;;;;;;;36.42;22.82;95752.75;5051003;28;20074;-64
2022/08/02 11:28:54;;;;;;;1.50;1.40;;;;;;;36.27;22.77;95750.34;5039660;28;20029;-64
2022/08/02 11:31:19;;;;;;;1.67;1.60;;;;;;;36.49;22.40;95749.59;5049560;28;20554;-64
2022/08/02 11:33:48;;;;;;;1.60;1.50;;;;;;;36.24;22.62;95746.28;5049867;28;20028;-64
2022/08/02 11:36:14;;;;;;;2.67;1.33;;;;;;;36.25;22.73;95747.06;5050605;28;20029;-64
2022/08/02 11:38:40;;;;;;;1.60;1.50;;;;;;;36.15;22.87;95748.13;5049827;28;20411;-64
2022/08/02 11:41:06;;;;;;;1.67;1.20;;;;;;;35.94;23.18;95747.69;5050171;28;20025;-63
2022/08/02 11:43:31;;;;;;;3.20;1.50;;;;;;;35.81;23.00;95736.44;5050184;28;20021;-64
2022/08/02 11:46:02;;;;;;;3.25;1.20;;;;;;;35.96;22.82;95740.81;5050448;28;20483;-63